Snake River Valley :: SantaqnA1

liberation: 2021-10-16  08:15     latitude: 39.952200     longitude: -111.812800 39 birds
# LOFT PRING MILES ARRIVAL SPEED ToWin
1 M&T Wall AU21-SRV-0016 254.233 2021-10-16 13:32:29.346 1409.340 00:00:00
2 M&T Wall AU21-SRV-0037 254.233 2021-10-16 13:32:30.702 1409.239 00:00:01
3 M&T Wall AU21-SRV-0045 254.233 2021-10-16 13:32:31.092 1409.211 00:00:02
4 M&T Wall AU21-SRV-0020 254.233 2021-10-16 13:32:31.966 1409.146 00:00:03
5 M&T Wall AU21-SRV-0039 254.233 2021-10-16 13:32:32.094 1409.137 00:00:03
6 M&T Wall AU21-SRV-0034 254.233 2021-10-16 13:32:32.217 1409.127 00:00:03
7 M&T Wall AU21-SRV-0013 254.233 2021-10-16 13:32:32.708 1409.091 00:00:03
8 M&T Wall AU21-SRV-0019 254.233 2021-10-16 13:32:33.125 1409.060 00:00:04
9 M&T Wall AU21-SRV-0023 254.233 2021-10-16 13:32:35.026 1408.920 00:00:06
10 M&T Wall AU21-SRV-0031 254.233 2021-10-16 13:32:36.837 1408.786 00:00:07
11 M&T Wall AU21-SRV-0003 254.233 2021-10-16 13:32:40.172 1408.539 00:00:11
12 M&T Wall AU21-SRV-0018 254.233 2021-10-16 13:36:10.160 1393.190 00:03:41
13 M&T Wall AU21-SRV-0049 254.233 2021-10-16 13:36:10.292 1393.181 00:03:41
14 Acorn Loft AU21-ARPU-1722 243.637 2021-10-16 13:24:42.179 1384.557 00:05:27
15 M&T Wall AU21-SRV-0375 254.233 2021-10-16 13:43:21.275 1362.704 00:10:52
16 M&T Wall AU21-SRV-0008 254.233 2021-10-16 13:43:23.242 1362.568 00:10:54
17 M&T Wall AU21-SRV-0017 254.233 2021-10-16 13:43:54.163 1360.433 00:11:25
18 M&T Wall AU21-SRV-0357 254.233 2021-10-16 13:44:52.198 1356.444 00:12:23
19 M&T Wall AU21-SRV-0010 254.233 2021-10-16 13:44:53.251 1356.371 00:12:24
20 M&T Wall AU21-SRV-0022 254.233 2021-10-16 13:44:53.627 1356.346 00:12:24
21 M&T Wall AU21-SRV-0371 254.233 2021-10-16 13:44:54.625 1356.277 00:12:25
22 M&T Wall AU21-SRV-0036 254.233 2021-10-16 13:44:57.280 1356.095 00:12:28
23 M&T Wall AU21-SRV-0009 254.233 2021-10-16 13:45:51.886 1352.365 00:13:23
24 M&T Wall AU21-SRV-0006 254.233 2021-10-16 13:46:04.652 1351.496 00:13:35
25 M&T Wall AU21-SRV-0029 254.233 2021-10-16 13:46:44.910 1348.763 00:14:16
26 M&T Wall AU21-SRV-0365 254.233 2021-10-16 13:50:57.409 1331.868 00:18:28
27 M&T Wall AU21-SRV-0033 254.233 2021-10-16 13:50:58.050 1331.825 00:18:29
28 Piazza Pigeons AU21-SRV-0202 260.655 2021-10-16 14:03:51.800 1314.992 00:23:21
29 Acorn Loft AU21-ARPU-1725 243.637 2021-10-16 13:47:00.381 1291.545 00:27:45
30 Piazza Pigeons AU21-SRV-0201 260.655 2021-10-16 14:13:20.939 1280.183 00:32:50
31 Piazza Pigeons AU21-SRV-0238 260.655 2021-10-16 14:15:21.441 1273.049 00:34:51
32 Piazza Pigeons AU21-SRV-0203 260.655 2021-10-16 14:23:51.329 1243.719 00:43:21
33 Acorn Loft AU21-ARPU-1726 243.637 2021-10-16 14:06:59.643 1218.206 00:47:44
34 M&T Wall AU21-SRV-0011 254.233 2021-10-16 14:22:28.678 1217.624 00:49:59
35 Piazza Pigeons AU21-SRV-0241 260.655 2021-10-16 14:45:58.528 1173.353 01:05:28
Piazza Pigeons AU21-SRV-0204 0 0000-00-00 00:00:00.000 0.000 00:00:00
Piazza Pigeons AU21-SRV-0205 0 0000-00-00 00:00:00.000 0.000 00:00:00
Piazza Pigeons AU21-SRV-0211 0 0000-00-00 00:00:00.000 0.000 00:00:00
Piazza Pigeons AU21-SRV-0214 0 0000-00-00 00:00:00.000 0.000 00:00:00